createdAt,value
2022-08-12T00:02:33.500Z,27.96
2022-08-12T00:05:21.007Z,27.99
2022-08-12T00:08:10.800Z,27.65
2022-08-12T00:10:59.942Z,27.94
2022-08-12T00:14:02.095Z,28.38
2022-08-12T00:16:50.138Z,28.20
2022-08-12T00:19:37.043Z,28.08
2022-08-12T00:22:24.800Z,28.24
2022-08-12T00:26:05.565Z,28.19
2022-08-12T00:28:32.222Z,28.25
2022-08-12T00:31:19.600Z,28.06
2022-08-12T00:34:07.244Z,28.27
2022-08-12T00:36:54.095Z,28.04
2022-08-12T00:39:41.602Z,27.85
2022-08-12T00:42:12.290Z,27.94
2022-08-12T00:44:43.978Z,27.84
2022-08-12T00:47:25.666Z,27.84
2022-08-12T00:49:56.112Z,27.61
2022-08-12T00:52:25.733Z,27.89
2022-08-12T00:55:00.348Z,27.66
2022-08-12T00:57:37.348Z,27.73
2022-08-12T01:00:14.109Z,27.71
2022-08-12T01:02:57.807Z,27.54
2022-08-12T01:05:46.335Z,27.69
2022-08-12T01:08:51.778Z,27.90
2022-08-12T01:11:29.964Z,27.64
2022-08-12T01:14:01.766Z,27.45
2022-08-12T01:16:30.070Z,27.61
2022-08-12T01:19:00.541Z,27.46
2022-08-12T01:21:43.311Z,27.50
2022-08-12T01:24:40.466Z,27.58
2022-08-12T01:27:13.031Z,27.68
2022-08-12T01:29:48.988Z,27.71
2022-08-12T01:32:21.570Z,27.59
2022-08-12T01:35:18.120Z,27.72
2022-08-12T01:38:05.462Z,27.69
2022-08-12T01:40:40.498Z,27.82
2022-08-12T01:43:21.638Z,27.62
2022-08-12T01:46:29.584Z,27.51
2022-08-12T01:49:35.686Z,27.87
2022-08-12T01:52:20.574Z,27.80
2022-08-12T01:54:53.425Z,27.83
2022-08-12T01:57:57.797Z,27.71
2022-08-12T02:00:46.945Z,27.93
2022-08-12T02:04:26.925Z,27.97
2022-08-12T02:08:02.751Z,27.77
2022-08-12T02:10:54.410Z,27.92
2022-08-12T02:13:56.284Z,27.78
2022-08-12T02:17:55.771Z,27.85
2022-08-12T02:20:51.648Z,27.83
2022-08-12T02:23:29.053Z,28.18
2022-08-12T02:26:09.439Z,28.22
2022-08-12T02:28:38.934Z,28.10
2022-08-12T02:31:11.176Z,28.20
2022-08-12T02:33:41.688Z,28.28
2022-08-12T02:36:09.984Z,28.24
2022-08-12T02:38:43.529Z,28.48
2022-08-12T02:41:17.090Z,28.51
2022-08-12T02:43:59.184Z,28.32
2022-08-12T02:46:34.720Z,28.42
2022-08-12T02:49:12.699Z,28.45
2022-08-12T02:51:46.878Z,28.40
2022-08-12T02:54:17.315Z,28.41
2022-08-12T02:56:50.364Z,28.74
2022-08-12T02:59:25.015Z,28.85
2022-08-12T03:01:56.613Z,28.64
2022-08-12T03:04:54.015Z,28.73
2022-08-12T03:07:26.761Z,29.02
2022-08-12T03:10:16.135Z,28.78
2022-08-12T03:12:49.247Z,29.14
2022-08-12T03:15:23.832Z,29.00
2022-08-12T03:18:32.327Z,28.93
2022-08-12T03:21:02.582Z,29.31
2022-08-12T03:23:31.542Z,29.29
2022-08-12T03:26:03.308Z,29.27
2022-08-12T03:28:54.486Z,29.18
2022-08-12T03:31:34.473Z,29.33
2022-08-12T03:34:12.702Z,29.07
2022-08-12T03:36:43.213Z,29.54
2022-08-12T03:39:16.798Z,29.41
2022-08-12T03:42:02.182Z,29.75
2022-08-12T03:44:48.352Z,29.81
2022-08-12T03:48:29.182Z,29.82
2022-08-12T03:51:17.873Z,29.99
2022-08-12T03:54:11.269Z,30.47
2022-08-12T03:56:58.520Z,30.37
2022-08-12T03:59:46.721Z,30.85
2022-08-12T04:02:17.585Z,31.10
2022-08-12T04:04:49.415Z,31.01
2022-08-12T04:07:17.980Z,31.09
2022-08-12T04:09:47.490Z,31.24
2022-08-12T04:12:35.604Z,31.23
2022-08-12T04:15:05.057Z,31.59
2022-08-12T04:17:36.459Z,31.65
2022-08-12T04:20:11.381Z,31.80
2022-08-12T04:22:40.728Z,31.65
2022-08-12T04:25:11.012Z,31.35
2022-08-12T04:27:44.118Z,31.60
2022-08-12T04:30:29.423Z,31.50
2022-08-12T04:33:02.824Z,31.71
2022-08-12T04:35:34.218Z,31.65
2022-08-12T04:38:03.063Z,31.33
2022-08-12T04:40:36.686Z,31.51
2022-08-12T04:43:07.336Z,31.49
2022-08-12T04:45:58.090Z,31.69
2022-08-12T04:48:26.460Z,31.78
2022-08-12T04:50:57.048Z,31.63
2022-08-12T04:53:26.486Z,31.74
2022-08-12T04:55:58.340Z,31.45
2022-08-12T04:58:29.941Z,31.78
2022-08-12T05:00:58.705Z,31.66
2022-08-12T05:03:28.332Z,31.87
2022-08-12T05:06:20.843Z,31.57
2022-08-12T05:08:57.903Z,31.84
2022-08-12T05:11:28.400Z,31.64
2022-08-12T05:14:02.289Z,31.63
2022-08-12T05:16:34.170Z,31.51
2022-08-12T05:19:05.449Z,31.62
2022-08-12T05:21:42.890Z,31.84
2022-08-12T05:24:11.508Z,31.65
2022-08-12T05:26:41.207Z,31.82
2022-08-12T05:30:08.356Z,31.92
2022-08-12T05:32:11.733Z,31.76
2022-08-12T05:35:01.568Z,31.91
2022-08-12T05:38:09.880Z,32.09
2022-08-12T05:40:38.908Z,32.22
2022-08-12T05:43:07.303Z,32.07
2022-08-12T05:45:35.700Z,32.42
2022-08-12T05:48:06.381Z,32.70
2022-08-12T05:50:38.441Z,32.61
2022-08-12T05:53:08.962Z,32.48
2022-08-12T05:55:38.970Z,32.09
2022-08-12T05:58:08.442Z,32.27
2022-08-12T06:00:39.157Z,31.82
2022-08-12T06:03:08.352Z,32.16
2022-08-12T06:05:52.715Z,32.19
2022-08-12T06:08:26.946Z,32.17
2022-08-12T06:10:57.257Z,31.89
2022-08-12T06:13:52.810Z,31.89
2022-08-12T06:16:22.209Z,31.86
2022-08-12T06:18:54.649Z,31.85
2022-08-12T06:21:23.684Z,31.75
2022-08-12T06:23:53.739Z,31.85
2022-08-12T06:26:24.286Z,31.90
2022-08-12T06:28:52.381Z,31.91
2022-08-12T06:31:28.721Z,32.03
2022-08-12T06:35:23.099Z,31.82
2022-08-12T06:36:48.022Z,31.78
2022-08-12T06:39:18.547Z,31.74
2022-08-12T06:42:33.042Z,31.71
2022-08-12T06:44:55.112Z,31.90
2022-08-12T06:47:23.029Z,31.30
2022-08-12T06:49:52.839Z,31.30
2022-08-12T06:52:24.908Z,31.06
2022-08-12T06:54:55.394Z,30.85
2022-08-12T06:57:57.404Z,30.72
2022-08-12T07:00:30.661Z,30.65
2022-08-12T07:03:22.902Z,30.65
2022-08-12T07:05:52.573Z,30.41
2022-08-12T07:08:21.357Z,30.42
2022-08-12T07:10:57.454Z,30.05
2022-08-12T07:14:12.815Z,30.01
2022-08-12T07:16:48.553Z,30.01
2022-08-12T07:19:17.293Z,29.93
2022-08-12T07:22:00.306Z,29.71
2022-08-12T07:24:30.986Z,29.84
2022-08-12T07:26:59.750Z,29.60
2022-08-12T07:30:03.961Z,29.46
2022-08-12T07:32:19.385Z,29.32
2022-08-12T07:34:47.603Z,29.23
2022-08-12T07:37:19.423Z,30.47
2022-08-12T07:39:50.719Z,29.96
2022-08-12T07:42:29.705Z,29.84
2022-08-12T07:44:58.538Z,29.65
2022-08-12T07:47:27.839Z,29.31
2022-08-12T07:50:04.453Z,29.18
2022-08-12T07:52:43.002Z,29.27
2022-08-12T07:55:12.443Z,28.91
2022-08-12T07:58:01.744Z,28.89
2022-08-12T08:00:35.526Z,28.60
2022-08-12T08:03:04.037Z,28.89
2022-08-12T08:05:39.061Z,28.70
2022-08-12T08:08:22.259Z,28.59
2022-08-12T08:10:53.124Z,28.60
2022-08-12T08:13:21.906Z,28.30
2022-08-12T08:16:03.344Z,27.90
2022-08-12T08:18:33.091Z,28.06
2022-08-12T08:21:04.506Z,28.06
2022-08-12T08:23:56.047Z,27.64
2022-08-12T08:26:27.405Z,27.79
2022-08-12T08:28:55.403Z,27.57
2022-08-12T08:31:25.295Z,27.51
2022-08-12T08:34:09.390Z,27.15
2022-08-12T08:36:43.668Z,26.98
2022-08-12T08:39:22.919Z,27.06
2022-08-12T08:42:16.662Z,26.83
2022-08-12T08:44:49.781Z,26.78
2022-08-12T08:47:26.306Z,26.59
2022-08-12T08:49:57.513Z,26.46
2022-08-12T08:52:40.249Z,27.33
2022-08-12T08:55:20.819Z,26.85
2022-08-12T08:57:54.983Z,26.37
2022-08-12T09:00:23.052Z,26.32
2022-08-12T09:02:59.450Z,26.13
2022-08-12T09:05:43.262Z,26.05
2022-08-12T09:08:23.002Z,26.07
2022-08-12T09:12:06.542Z,25.81
2022-08-12T09:14:18.677Z,26.05
2022-08-12T09:16:50.086Z,25.94
2022-08-12T09:19:27.238Z,25.55
2022-08-12T09:22:18.591Z,25.65
2022-08-12T09:24:49.804Z,25.57
2022-08-12T09:27:19.421Z,25.27
2022-08-12T09:30:11.235Z,25.20
2022-08-12T09:33:04.715Z,25.20
2022-08-12T09:35:33.668Z,24.64
2022-08-12T09:38:28.148Z,24.63
2022-08-12T09:42:07.595Z,24.57
2022-08-12T09:44:39.422Z,24.10
2022-08-12T09:46:58.632Z,24.05
2022-08-12T09:49:33.808Z,23.94
2022-08-12T09:52:05.613Z,23.87
2022-08-12T09:54:35.468Z,23.57
2022-08-12T09:58:47.063Z,23.70
2022-08-12T10:00:17.900Z,23.52
2022-08-12T10:03:03.378Z,23.52
2022-08-12T10:06:20.185Z,23.40
2022-08-12T10:08:32.314Z,23.31
2022-08-12T10:11:23.905Z,23.15
2022-08-12T10:13:55.527Z,23.25
2022-08-12T10:16:29.315Z,23.51
2022-08-12T10:19:06.103Z,23.25
2022-08-12T10:21:46.253Z,23.08
2022-08-12T10:24:20.605Z,23.04
2022-08-12T10:27:07.980Z,22.54
2022-08-12T10:30:37.474Z,22.73
2022-08-12T10:32:43.225Z,22.33
2022-08-12T10:35:16.000Z,22.52
2022-08-12T10:38:35.613Z,22.68
2022-08-12T10:40:55.919Z,22.15
2022-08-12T10:43:54.432Z,22.05
2022-08-12T10:46:31.202Z,22.01
2022-08-12T10:49:06.554Z,22.07
2022-08-12T10:52:04.805Z,21.75
2022-08-12T10:54:43.688Z,21.91
2022-08-12T10:58:14.891Z,21.88
2022-08-12T11:00:34.979Z,21.62
2022-08-12T11:04:22.739Z,22.44
2022-08-12T11:07:06.192Z,21.80
2022-08-12T11:09:02.661Z,21.78
2022-08-12T11:12:36.949Z,21.72
2022-08-12T11:14:49.098Z,21.46
2022-08-12T11:17:42.916Z,21.57
2022-08-12T11:20:15.168Z,21.61
2022-08-12T11:22:59.699Z,21.70
2022-08-12T11:25:55.389Z,21.19
2022-08-12T11:28:34.023Z,21.39
2022-08-12T11:31:12.220Z,21.43
2022-08-12T11:34:04.875Z,21.21
2022-08-12T11:36:54.669Z,21.07
2022-08-12T11:42:38.167Z,20.89
2022-08-12T11:45:17.130Z,20.98
2022-08-12T11:47:47.277Z,20.92
2022-08-12T11:50:20.788Z,20.96
2022-08-12T11:53:00.718Z,20.73
2022-08-12T11:55:33.296Z,20.80
2022-08-12T11:58:40.593Z,20.73
2022-08-12T12:03:47.386Z,20.83
2022-08-12T12:06:18.009Z,20.74
2022-08-12T12:08:52.867Z,20.83
2022-08-12T12:11:25.211Z,20.82
2022-08-12T12:14:06.581Z,20.68
2022-08-12T12:16:40.055Z,20.52
2022-08-12T12:19:20.552Z,20.45
2022-08-12T12:21:49.736Z,20.36
2022-08-12T12:24:22.078Z,20.29
2022-08-12T12:26:59.534Z,20.26
2022-08-12T12:30:19.355Z,20.31
2022-08-12T12:32:29.314Z,20.37
2022-08-12T12:35:13.120Z,19.96
2022-08-12T12:38:05.660Z,20.26
2022-08-12T12:40:50.210Z,20.06
2022-08-12T12:43:37.140Z,19.96
2022-08-12T12:46:08.836Z,19.93
2022-08-12T12:48:41.398Z,20.23
2022-08-12T12:51:48.400Z,20.20
2022-08-12T12:54:11.067Z,20.23
2022-08-12T12:56:43.147Z,19.92
2022-08-12T12:59:54.594Z,19.90
2022-08-12T13:02:06.184Z,19.89
2022-08-12T13:04:38.012Z,19.78
2022-08-12T13:07:07.274Z,19.93
2022-08-12T13:09:36.931Z,19.99
2022-08-12T13:12:11.277Z,19.60
2022-08-12T13:14:40.294Z,19.78
2022-08-12T13:17:14.798Z,19.46
2022-08-12T13:19:48.245Z,19.49
2022-08-12T13:22:19.629Z,19.47
2022-08-12T13:24:56.135Z,19.39
2022-08-12T13:27:41.479Z,19.50
2022-08-12T13:30:25.208Z,19.52
2022-08-12T13:32:58.689Z,19.18
2022-08-12T13:36:04.959Z,19.25
2022-08-12T13:38:41.546Z,19.07
2022-08-12T13:41:32.881Z,19.55
2022-08-12T13:44:26.298Z,19.23
2022-08-12T13:46:58.456Z,19.04
2022-08-12T13:49:53.655Z,19.05
2022-08-12T13:52:20.974Z,19.01
2022-08-12T13:54:56.143Z,18.80
2022-08-12T13:57:44.379Z,18.82
2022-08-12T14:00:16.825Z,18.90
2022-08-12T14:02:48.472Z,18.78
2022-08-12T14:05:31.102Z,18.59
2022-08-12T14:08:11.802Z,18.48
2022-08-12T14:10:51.088Z,18.44
2022-08-12T14:14:04.301Z,18.17
2022-08-12T14:16:46.790Z,18.15
2022-08-12T14:19:18.313Z,18.15
2022-08-12T14:22:01.091Z,18.53
2022-08-12T14:24:40.464Z,18.25
2022-08-12T14:27:11.430Z,18.64
2022-08-12T14:30:04.686Z,18.19
2022-08-12T14:32:34.976Z,18.07
2022-08-12T14:35:09.235Z,18.27
2022-08-12T14:37:55.241Z,18.14
2022-08-12T14:40:31.402Z,17.90
2022-08-12T14:42:59.763Z,18.20
2022-08-12T14:45:45.114Z,17.88
2022-08-12T14:48:24.284Z,17.72
2022-08-12T14:52:10.295Z,18.10
2022-08-12T14:55:36.209Z,17.95
2022-08-12T14:59:58.007Z,17.79
2022-08-12T15:02:28.889Z,17.94
2022-08-12T15:05:03.521Z,17.78
2022-08-12T15:07:50.091Z,17.55
2022-08-12T15:10:31.563Z,17.40
2022-08-12T15:13:07.382Z,17.46
2022-08-12T15:15:45.735Z,17.44
2022-08-12T15:18:21.549Z,17.67
2022-08-12T15:21:01.128Z,17.62
2022-08-12T15:23:54.824Z,17.33
2022-08-12T15:26:27.355Z,17.50
2022-08-12T15:28:55.955Z,17.61
2022-08-12T15:31:28.362Z,17.51
2022-08-12T15:34:14.385Z,17.37
2022-08-12T15:36:55.020Z,17.04
2022-08-12T15:39:28.029Z,17.30
2022-08-12T15:42:01.875Z,17.41
2022-08-12T15:44:42.045Z,17.51
2022-08-12T15:47:11.732Z,17.80
2022-08-12T15:49:55.105Z,17.59
2022-08-12T15:52:30.285Z,17.63
2022-08-12T15:55:04.925Z,17.46
2022-08-12T15:57:37.207Z,17.74
2022-08-12T16:00:22.500Z,17.63
2022-08-12T16:03:02.023Z,17.64
2022-08-12T16:06:11.604Z,17.77
2022-08-12T16:08:29.874Z,17.89
2022-08-12T16:10:59.363Z,17.59
2022-08-12T16:13:34.319Z,17.62
2022-08-12T16:16:12.501Z,17.35
2022-08-12T16:19:01.967Z,17.73
2022-08-12T16:21:52.275Z,17.38
2022-08-12T16:24:25.229Z,17.48
2022-08-12T16:26:55.634Z,17.32
2022-08-12T16:29:38.632Z,17.33
2022-08-12T16:32:24.274Z,17.70
2022-08-12T16:35:01.623Z,17.42
2022-08-12T16:38:27.947Z,17.19
2022-08-12T16:40:28.244Z,17.46
2022-08-12T16:43:04.755Z,17.09
2022-08-12T16:46:05.429Z,17.43
2022-08-12T16:48:38.798Z,17.32
2022-08-12T16:51:13.499Z,17.29
2022-08-12T16:53:46.915Z,17.68
2022-08-12T16:56:18.156Z,17.42
2022-08-12T16:58:52.143Z,17.15
2022-08-12T17:01:23.389Z,17.50
2022-08-12T17:04:11.829Z,17.82
2022-08-12T17:06:44.189Z,17.54
2022-08-12T17:09:16.775Z,17.71
2022-08-12T17:11:49.467Z,17.60
2022-08-12T17:14:23.205Z,17.69
2022-08-12T17:16:55.845Z,17.56
2022-08-12T17:20:28.867Z,17.46
2022-08-12T17:22:21.784Z,17.58
2022-08-12T17:24:56.076Z,17.67
2022-08-12T17:27:30.885Z,17.46
2022-08-12T17:30:29.920Z,17.61
2022-08-12T17:33:07.030Z,17.75
2022-08-12T17:35:43.072Z,17.60
2022-08-12T17:38:14.200Z,17.80
2022-08-12T17:40:47.809Z,17.58
2022-08-12T17:43:57.020Z,17.95
2022-08-12T17:46:13.033Z,17.94
2022-08-12T17:48:55.950Z,17.82
2022-08-12T17:51:31.641Z,17.80
2022-08-12T17:54:05.865Z,17.92
2022-08-12T17:56:42.930Z,17.87
2022-08-12T17:59:13.177Z,18.05
2022-08-12T18:01:46.125Z,18.01
2022-08-12T18:04:21.979Z,17.98
2022-08-12T18:06:52.739Z,18.16
2022-08-12T18:09:24.521Z,18.23
2022-08-12T18:12:24.436Z,18.29
2022-08-12T18:15:01.207Z,18.23
2022-08-12T18:17:39.569Z,18.26
2022-08-12T18:20:15.637Z,18.42
2022-08-12T18:22:47.571Z,18.37
2022-08-12T18:26:15.907Z,18.41
2022-08-12T18:28:27.508Z,18.54
2022-08-12T18:31:03.111Z,18.70
2022-08-12T18:33:43.991Z,18.60
2022-08-12T18:36:22.402Z,18.43
2022-08-12T18:38:56.022Z,18.61
2022-08-12T18:41:36.328Z,18.42
2022-08-12T18:44:10.142Z,18.42
2022-08-12T18:46:53.770Z,18.53
2022-08-12T18:49:39.584Z,18.64
2022-08-12T18:52:11.668Z,18.74
2022-08-12T18:54:48.712Z,18.68
2022-08-12T18:57:59.702Z,18.84
2022-08-12T19:00:21.516Z,18.77
2022-08-12T19:02:55.325Z,19.26
2022-08-12T19:05:53.782Z,19.17
2022-08-12T19:08:15.599Z,19.13
2022-08-12T19:10:50.703Z,19.25
2022-08-12T19:13:48.472Z,19.23
2022-08-12T19:16:23.943Z,19.61
2022-08-12T19:18:55.531Z,19.63
2022-08-12T19:21:23.710Z,19.49
2022-08-12T19:24:11.906Z,19.53
2022-08-12T19:26:42.437Z,19.73
2022-08-12T19:29:11.843Z,19.70
2022-08-12T19:31:57.794Z,19.80
2022-08-12T19:38:02.932Z,20.16
2022-08-12T19:40:32.928Z,20.27
2022-08-12T19:43:18.777Z,20.53
2022-08-12T19:45:51.614Z,20.63
2022-08-12T19:48:24.952Z,20.45
2022-08-12T19:50:57.139Z,20.68
2022-08-12T19:53:27.484Z,20.34
2022-08-12T19:55:57.589Z,20.67
2022-08-12T19:58:26.936Z,20.83
2022-08-12T20:00:55.763Z,20.84
2022-08-12T20:03:38.406Z,20.87
2022-08-12T20:06:16.262Z,20.66
2022-08-12T20:08:56.735Z,21.27
2022-08-12T20:12:09.482Z,21.01
2022-08-12T20:14:19.702Z,21.29
2022-08-12T20:16:57.283Z,21.37
2022-08-12T20:20:05.481Z,21.20
2022-08-12T20:22:31.596Z,20.99
2022-08-12T20:25:10.504Z,21.45
2022-08-12T20:28:04.006Z,21.65
2022-08-12T20:30:52.593Z,21.39
2022-08-12T20:33:32.586Z,21.65
2022-08-12T20:36:40.826Z,21.53
2022-08-12T20:39:34.040Z,21.81
2022-08-12T20:42:00.166Z,21.61
2022-08-12T20:44:31.024Z,21.85
2022-08-12T20:47:16.649Z,22.07
2022-08-12T20:49:55.900Z,21.90
2022-08-12T20:52:30.193Z,22.02
2022-08-12T20:54:58.641Z,22.13
2022-08-12T20:57:38.189Z,22.01
2022-08-12T21:00:19.437Z,21.87
2022-08-12T21:02:52.027Z,22.17
2022-08-12T21:06:09.606Z,22.06
2022-08-12T21:08:29.953Z,22.01
2022-08-12T21:11:01.090Z,22.05
2022-08-12T21:13:29.564Z,22.04
2022-08-12T21:16:09.915Z,22.51
2022-08-12T21:18:39.145Z,22.20
2022-08-12T21:21:23.083Z,22.25
2022-08-12T21:23:56.385Z,22.31
2022-08-12T21:26:28.374Z,22.68
2022-08-12T21:29:01.531Z,22.54
2022-08-12T21:32:36.837Z,22.75
2022-08-12T21:34:26.364Z,22.55
2022-08-12T21:37:13.072Z,22.63
2022-08-12T21:39:53.533Z,22.82
2022-08-12T21:42:27.974Z,22.68
2022-08-12T21:45:45.408Z,23.17
2022-08-12T21:47:46.380Z,23.36
2022-08-12T21:50:15.383Z,23.34
2022-08-12T21:52:49.187Z,23.24
2022-08-12T21:55:20.437Z,23.43
2022-08-12T21:57:54.831Z,23.35
2022-08-12T22:00:34.566Z,23.51
2022-08-12T22:04:03.230Z,23.46
2022-08-12T22:06:30.630Z,23.38
2022-08-12T22:09:15.757Z,23.53
2022-08-12T22:11:56.453Z,23.90
2022-08-12T22:14:29.493Z,23.74
2022-08-12T22:17:00.678Z,23.81
2022-08-12T22:19:33.791Z,23.76
2022-08-12T22:22:05.420Z,23.90
2022-08-12T22:24:36.356Z,23.88
2022-08-12T22:27:22.990Z,23.96
2022-08-12T22:30:19.504Z,24.18
2022-08-12T22:32:49.833Z,24.14
2022-08-12T22:35:56.705Z,24.08
2022-08-12T22:38:26.740Z,24.05
2022-08-12T22:41:01.952Z,24.23
2022-08-12T22:44:00.125Z,24.39
2022-08-12T22:46:37.227Z,24.41
2022-08-12T22:49:08.910Z,24.54
2022-08-12T22:51:57.601Z,24.59
2022-08-12T22:54:35.766Z,24.72
2022-08-12T22:57:12.178Z,24.95
2022-08-12T22:59:55.656Z,25.23
2022-08-12T23:02:39.167Z,25.00
2022-08-12T23:05:10.502Z,25.02
2022-08-12T23:07:59.803Z,25.30
2022-08-12T23:10:28.869Z,25.36
2022-08-12T23:13:16.392Z,25.54
2022-08-12T23:15:47.590Z,25.86
2022-08-12T23:18:23.021Z,25.74
2022-08-12T23:21:01.632Z,26.02
2022-08-12T23:23:57.464Z,26.21
2022-08-12T23:26:43.533Z,26.13
2022-08-12T23:29:25.826Z,26.10
2022-08-12T23:32:10.754Z,26.27
2022-08-12T23:34:38.903Z,26.27
2022-08-12T23:37:16.586Z,26.48
2022-08-12T23:40:14.559Z,26.44
2022-08-12T23:42:34.424Z,26.08
2022-08-12T23:45:18.874Z,26.35
2022-08-12T23:47:58.723Z,26.67
2022-08-12T23:50:33.462Z,26.46
2022-08-12T23:53:22.685Z,26.46
2022-08-12T23:55:55.321Z,26.79
2022-08-12T23:58:31.248Z,26.61
